createdAt,value
2022-10-21T00:00:07.206Z,25.70
2022-10-21T00:02:50.425Z,25.67
2022-10-21T00:05:32.835Z,25.63
2022-10-21T00:08:21.076Z,25.59
2022-10-21T00:11:00.732Z,25.40
2022-10-21T00:13:35.457Z,25.44
2022-10-21T00:16:15.254Z,25.40
2022-10-21T00:18:53.920Z,25.55
2022-10-21T00:21:27.535Z,25.56
2022-10-21T00:24:00.107Z,25.44
2022-10-21T00:26:37.688Z,25.52
2022-10-21T00:29:07.034Z,25.57
2022-10-21T00:31:35.346Z,25.59
2022-10-21T00:34:09.384Z,25.61
2022-10-21T00:36:37.301Z,25.54
2022-10-21T00:39:09.199Z,25.61
2022-10-21T00:41:41.941Z,25.54
2022-10-21T00:44:19.679Z,25.63
2022-10-21T00:46:59.650Z,25.61
2022-10-21T00:49:47.317Z,25.56
2022-10-21T00:52:32.027Z,25.57
2022-10-21T00:55:09.365Z,25.56
2022-10-21T00:57:38.132Z,25.61
2022-10-21T01:00:13.192Z,25.67
2022-10-21T01:02:50.840Z,25.67
2022-10-21T01:05:24.826Z,25.70
2022-10-21T01:07:55.530Z,25.47
2022-10-21T01:10:28.023Z,25.42
2022-10-21T01:13:13.735Z,25.46
2022-10-21T01:16:08.075Z,25.48
2022-10-21T01:19:07.635Z,25.43
2022-10-21T01:22:24.861Z,25.44
2022-10-21T01:25:38.983Z,25.32
2022-10-21T01:31:51.595Z,25.43
2022-10-21T01:34:47.205Z,25.33
2022-10-21T01:37:30.450Z,25.31
2022-10-21T01:40:27.851Z,25.32
2022-10-21T01:43:13.227Z,25.33
2022-10-21T01:45:55.420Z,25.41
2022-10-21T01:48:32.403Z,25.45
2022-10-21T01:51:04.727Z,25.47
2022-10-21T01:53:41.377Z,25.45
2022-10-21T01:56:14.890Z,25.40
2022-10-21T01:58:43.677Z,25.41
2022-10-21T02:01:13.310Z,25.45
2022-10-21T02:03:44.839Z,25.47
2022-10-21T02:06:15.843Z,25.43
2022-10-21T02:08:44.577Z,25.51
2022-10-21T02:11:13.637Z,25.54
2022-10-21T02:14:08.495Z,25.44
2022-10-21T02:16:42.892Z,25.45
2022-10-21T02:19:21.491Z,25.54
2022-10-21T02:21:52.740Z,25.56
2022-10-21T02:24:45.766Z,25.55
2022-10-21T02:27:16.951Z,25.37
2022-10-21T02:29:47.813Z,25.48
2022-10-21T02:32:32.953Z,25.46
2022-10-21T02:35:25.132Z,25.44
2022-10-21T02:38:20.860Z,25.40
2022-10-21T02:40:54.258Z,25.32
2022-10-21T02:43:39.273Z,25.24
2022-10-21T02:46:10.673Z,25.14
2022-10-21T02:48:40.695Z,24.97
2022-10-21T02:51:12.198Z,25.10
2022-10-21T02:53:46.775Z,25.13
2022-10-21T02:56:16.681Z,25.15
2022-10-21T02:58:46.501Z,25.20
2022-10-21T03:01:19.780Z,25.19
2022-10-21T03:03:48.636Z,25.24
2022-10-21T03:06:20.029Z,25.28
2022-10-21T03:08:51.716Z,25.28
2022-10-21T03:11:19.964Z,25.29
2022-10-21T03:13:48.960Z,25.26
2022-10-21T03:16:22.562Z,25.28
2022-10-21T03:18:58.924Z,25.26
2022-10-21T03:21:30.214Z,25.25
2022-10-21T03:23:58.559Z,25.25
2022-10-21T03:26:26.911Z,25.20
2022-10-21T03:28:55.309Z,25.25
2022-10-21T03:31:25.779Z,25.22
2022-10-21T03:33:54.977Z,25.27
2022-10-21T03:36:23.658Z,25.28
2022-10-21T03:38:52.249Z,25.24
2022-10-21T03:41:23.756Z,25.24
2022-10-21T03:43:58.015Z,25.26
2022-10-21T03:46:31.397Z,25.24
2022-10-21T03:49:09.045Z,25.27
2022-10-21T03:51:46.593Z,25.26
2022-10-21T03:54:31.845Z,25.27
2022-10-21T03:56:59.533Z,25.28
2022-10-21T03:59:27.210Z,25.29
2022-10-21T04:01:55.287Z,25.31
2022-10-21T04:04:25.966Z,25.32
2022-10-21T04:06:53.863Z,25.32
2022-10-21T04:09:21.581Z,25.28
2022-10-21T04:11:49.403Z,25.31
2022-10-21T04:14:20.856Z,25.33
2022-10-21T04:17:06.468Z,25.27
2022-10-21T04:19:37.422Z,25.30
2022-10-21T04:22:05.748Z,25.29
2022-10-21T04:24:36.837Z,25.31
2022-10-21T04:27:05.064Z,25.31
2022-10-21T04:29:32.943Z,25.32
2022-10-21T04:32:04.237Z,25.35
2022-10-21T04:34:32.299Z,25.33
2022-10-21T04:37:02.638Z,25.35
2022-10-21T04:39:33.053Z,25.34
2022-10-21T04:42:01.474Z,25.33
2022-10-21T04:44:30.979Z,25.34
2022-10-21T04:46:59.402Z,25.36
2022-10-21T04:49:27.485Z,25.28
2022-10-21T04:51:58.270Z,25.25
2022-10-21T04:54:26.603Z,25.20
2022-10-21T04:56:54.410Z,25.22
2022-10-21T04:59:32.104Z,25.20
2022-10-21T05:02:03.148Z,25.12
2022-10-21T05:04:31.364Z,25.19
2022-10-21T05:07:06.144Z,25.25
2022-10-21T05:09:49.320Z,25.27
2022-10-21T05:12:22.840Z,25.28
2022-10-21T05:14:53.309Z,25.29
2022-10-21T05:17:27.251Z,25.31
2022-10-21T05:19:56.044Z,25.22
2022-10-21T05:22:24.009Z,25.33
2022-10-21T05:24:57.007Z,25.36
2022-10-21T05:27:25.636Z,25.38
2022-10-21T05:30:02.218Z,25.39
2022-10-21T05:32:42.815Z,25.41
2022-10-21T05:35:13.618Z,25.44
2022-10-21T05:37:42.950Z,25.43
2022-10-21T05:40:11.496Z,25.43
2022-10-21T05:42:42.380Z,25.42
2022-10-21T05:45:19.006Z,25.38
2022-10-21T05:47:57.633Z,25.45
2022-10-21T05:50:26.009Z,25.46
2022-10-21T05:53:00.781Z,25.45
2022-10-21T05:55:33.968Z,25.44
2022-10-21T05:58:04.134Z,25.48
2022-10-21T06:00:40.456Z,25.47
2022-10-21T06:03:08.703Z,25.34
2022-10-21T06:05:39.420Z,25.20
2022-10-21T06:08:07.476Z,25.25
2022-10-21T06:10:36.736Z,25.23
2022-10-21T06:13:06.958Z,25.28
2022-10-21T06:15:37.447Z,25.28
2022-10-21T06:18:07.462Z,25.32
2022-10-21T06:20:38.335Z,25.32
2022-10-21T06:23:07.200Z,25.30
2022-10-21T06:25:34.787Z,25.32
2022-10-21T06:28:10.548Z,25.32
2022-10-21T06:30:41.643Z,25.30
2022-10-21T06:33:09.386Z,25.31
2022-10-21T06:35:40.555Z,25.29
2022-10-21T06:38:09.315Z,25.27
2022-10-21T06:40:44.713Z,25.30
2022-10-21T06:43:12.860Z,25.36
2022-10-21T06:45:40.707Z,25.39
2022-10-21T06:48:11.431Z,25.40
2022-10-21T06:50:42.263Z,25.46
2022-10-21T06:53:12.143Z,25.47
2022-10-21T06:55:45.845Z,25.54
2022-10-21T06:58:14.134Z,25.56
2022-10-21T07:00:44.420Z,25.60
2022-10-21T07:03:15.933Z,25.62
2022-10-21T07:05:47.365Z,25.65
2022-10-21T07:08:22.345Z,25.72
2022-10-21T07:11:00.223Z,25.77
2022-10-21T07:13:37.206Z,25.84
2022-10-21T07:16:17.564Z,25.87
2022-10-21T07:18:47.992Z,25.91
2022-10-21T07:21:21.595Z,25.97
2022-10-21T07:23:57.928Z,26.03
2022-10-21T07:26:31.507Z,26.09
2022-10-21T07:29:07.170Z,26.13
2022-10-21T07:31:44.372Z,26.13
2022-10-21T07:34:26.125Z,26.17
2022-10-21T07:36:57.829Z,26.16
2022-10-21T07:39:29.650Z,26.21
2022-10-21T07:41:59.875Z,26.26
2022-10-21T07:44:30.815Z,26.37
2022-10-21T07:47:05.989Z,26.43
2022-10-21T07:49:41.954Z,26.39
2022-10-21T07:52:10.833Z,26.22
2022-10-21T07:54:40.556Z,26.26
2022-10-21T07:57:08.802Z,26.42
2022-10-21T07:59:37.978Z,26.21
2022-10-21T08:02:19.515Z,26.00
2022-10-21T08:04:50.554Z,26.06
2022-10-21T08:07:19.477Z,25.93
2022-10-21T08:09:51.804Z,26.17
2022-10-21T08:12:20.472Z,26.32
2022-10-21T08:14:53.993Z,26.26
2022-10-21T08:17:22.699Z,26.60
2022-10-21T08:19:51.710Z,26.63
2022-10-21T08:22:22.270Z,27.02
2022-10-21T08:24:53.047Z,26.69
2022-10-21T08:27:21.492Z,26.99
2022-10-21T08:29:52.119Z,26.92
2022-10-21T08:32:22.466Z,27.44
2022-10-21T08:34:51.114Z,27.31
2022-10-21T08:37:24.888Z,27.35
2022-10-21T08:39:56.959Z,27.21
2022-10-21T08:42:26.700Z,27.54
2022-10-21T08:45:00.599Z,27.33
2022-10-21T08:47:53.052Z,27.98
2022-10-21T08:50:24.633Z,28.09
2022-10-21T08:53:40.846Z,28.25
2022-10-21T08:56:47.021Z,28.58
2022-10-21T09:03:27.326Z,29.09
2022-10-21T09:25:32.066Z,29.29
2022-10-21T09:28:09.442Z,29.09
2022-10-21T09:31:02.228Z,29.32
2022-10-21T09:33:47.519Z,29.47
2022-10-21T09:36:31.125Z,29.41
2022-10-21T09:39:08.642Z,29.13
2022-10-21T09:41:48.538Z,29.08
2022-10-21T09:44:23.135Z,28.57
2022-10-21T09:46:53.702Z,28.93
2022-10-21T09:50:06.269Z,29.38
2022-10-21T09:52:24.099Z,29.33
2022-10-21T09:54:52.123Z,29.74
2022-10-21T09:58:03.813Z,29.56
2022-10-21T10:00:51.027Z,30.20
2022-10-21T10:03:43.536Z,30.46
2022-10-21T10:06:35.153Z,30.61
2022-10-21T10:09:13.502Z,30.35
2022-10-21T10:11:55.296Z,30.19
2022-10-21T10:14:31.741Z,30.19
2022-10-21T10:17:22.631Z,30.40
2022-10-21T10:20:06.574Z,29.83
2022-10-21T10:22:59.332Z,29.62
2022-10-21T10:25:35.027Z,29.39
2022-10-21T10:28:20.601Z,29.72
2022-10-21T10:30:55.172Z,29.69
2022-10-21T10:33:31.906Z,29.80
2022-10-21T10:36:05.531Z,30.00
2022-10-21T10:38:39.405Z,29.74
2022-10-21T10:41:15.004Z,29.57
2022-10-21T10:43:58.634Z,29.72
2022-10-21T10:46:36.345Z,29.70
2022-10-21T10:49:13.585Z,29.51
2022-10-21T10:51:43.026Z,29.76
2022-10-21T10:54:20.611Z,29.52
2022-10-21T10:57:01.293Z,29.84
2022-10-21T11:00:13.949Z,29.61
2022-10-21T11:02:52.530Z,30.22
2022-10-21T11:05:37.453Z,31.17
2022-10-21T11:08:11.595Z,31.43
2022-10-21T11:10:56.920Z,31.31
2022-10-21T11:13:25.654Z,31.82
2022-10-21T11:16:26.109Z,31.60
2022-10-21T11:19:20.230Z,31.91
2022-10-21T11:22:11.267Z,31.96
2022-10-21T11:25:09.062Z,32.16
2022-10-21T11:27:52.831Z,32.08
2022-10-21T11:30:33.612Z,32.13
2022-10-21T11:33:10.597Z,32.44
2022-10-21T11:36:16.435Z,32.80
2022-10-21T11:39:04.019Z,32.18
2022-10-21T11:41:46.131Z,32.36
2022-10-21T11:44:14.398Z,33.02
2022-10-21T11:47:11.965Z,33.33
2022-10-21T11:49:59.483Z,33.29
2022-10-21T11:52:54.916Z,33.72
2022-10-21T11:55:53.876Z,33.51
2022-10-21T11:58:54.233Z,33.83
2022-10-21T12:02:00.052Z,33.96
2022-10-21T12:05:09.219Z,33.60
2022-10-21T12:07:52.374Z,33.12
2022-10-21T12:10:33.478Z,33.27
2022-10-21T12:13:25.961Z,33.63
2022-10-21T12:16:01.012Z,33.39
2022-10-21T12:18:31.270Z,33.05
2022-10-21T12:21:03.240Z,33.58
2022-10-21T12:23:34.828Z,34.10
2022-10-21T12:26:33.364Z,34.52
2022-10-21T12:29:18.402Z,34.85
2022-10-21T12:32:07.683Z,33.88
2022-10-21T12:34:52.646Z,33.70
2022-10-21T12:37:52.716Z,33.87
2022-10-21T12:40:33.311Z,34.29
2022-10-21T12:43:26.376Z,33.62
2022-10-21T12:46:23.056Z,33.03
2022-10-21T12:48:58.185Z,33.42
2022-10-21T12:51:39.783Z,33.49
2022-10-21T12:54:28.089Z,33.53
2022-10-21T12:57:32.911Z,33.53
2022-10-21T13:00:30.630Z,33.32
2022-10-21T13:03:41.965Z,33.22
2022-10-21T13:07:02.962Z,33.38
2022-10-21T13:10:10.613Z,33.61
2022-10-21T13:13:13.557Z,34.35
2022-10-21T13:18:53.802Z,33.57
2022-10-21T13:21:43.122Z,34.19
2022-10-21T13:24:46.263Z,33.27
2022-10-21T13:27:42.714Z,33.45
2022-10-21T13:30:57.408Z,33.67
2022-10-21T13:33:53.862Z,33.95
2022-10-21T13:36:40.203Z,34.06
2022-10-21T13:39:26.690Z,33.45
2022-10-21T13:42:50.280Z,33.41
2022-10-21T13:45:38.351Z,34.17
2022-10-21T13:48:30.704Z,34.44
2022-10-21T13:51:21.667Z,34.49
2022-10-21T13:53:53.629Z,34.30
2022-10-21T13:56:30.904Z,33.51
2022-10-21T13:59:21.045Z,33.50
2022-10-21T14:02:00.485Z,33.19
2022-10-21T14:07:31.326Z,33.28
2022-10-21T14:10:02.799Z,33.16
2022-10-21T14:12:37.434Z,32.98
2022-10-21T14:15:44.087Z,32.73
2022-10-21T14:18:32.260Z,32.08
2022-10-21T14:21:28.508Z,32.08
2022-10-21T14:24:06.213Z,31.55
2022-10-21T14:26:36.811Z,31.37
2022-10-21T14:29:06.621Z,31.09
2022-10-21T14:31:35.527Z,30.83
2022-10-21T14:34:15.121Z,30.83
2022-10-21T14:37:14.982Z,30.75
2022-10-21T14:39:44.759Z,30.51
2022-10-21T14:42:21.692Z,30.29
2022-10-21T14:45:14.189Z,30.59
2022-10-21T14:47:42.984Z,30.22
2022-10-21T14:50:23.848Z,29.72
2022-10-21T14:52:54.782Z,29.96
2022-10-21T14:55:39.773Z,29.87
2022-10-21T14:58:14.981Z,29.92
2022-10-21T15:00:46.543Z,30.06
2022-10-21T15:03:38.332Z,30.01
2022-10-21T15:06:28.464Z,29.92
2022-10-21T15:09:05.557Z,30.00
2022-10-21T15:11:46.319Z,29.72
2022-10-21T15:14:32.570Z,29.42
2022-10-21T15:26:03.087Z,29.19
2022-10-21T15:28:39.314Z,29.18
2022-10-21T15:41:13.189Z,28.67
2022-10-21T15:44:31.802Z,28.18
2022-10-21T15:47:12.149Z,28.76
2022-10-21T15:49:57.066Z,28.79
2022-10-21T15:52:32.623Z,28.91
2022-10-21T15:55:04.617Z,28.74
2022-10-21T15:57:32.545Z,28.84
2022-10-21T16:00:03.935Z,28.78
2022-10-21T16:02:32.210Z,28.54
2022-10-21T16:05:00.103Z,28.83
2022-10-21T16:07:33.219Z,28.62
2022-10-21T16:10:01.561Z,28.40
2022-10-21T16:12:32.091Z,28.41
2022-10-21T16:21:45.407Z,28.18
2022-10-21T16:24:59.201Z,28.19
2022-10-21T16:27:55.203Z,28.10
2022-10-21T16:30:40.809Z,27.87
2022-10-21T16:33:12.038Z,28.18
2022-10-21T16:36:03.109Z,27.95
2022-10-21T16:38:51.356Z,27.72
2022-10-21T16:41:38.010Z,27.76
2022-10-21T16:44:21.464Z,28.14
2022-10-21T16:47:20.411Z,28.50
2022-10-21T16:50:01.313Z,28.65
2022-10-21T16:52:39.901Z,28.17
2022-10-21T16:55:22.340Z,28.31
2022-10-21T16:58:12.481Z,28.17
2022-10-21T17:00:53.555Z,27.78
2022-10-21T17:03:42.799Z,28.08
2022-10-21T17:06:28.666Z,28.35
2022-10-21T17:09:20.272Z,28.51
2022-10-21T17:12:09.092Z,28.48
2022-10-21T17:15:02.964Z,28.12
2022-10-21T17:17:47.875Z,28.28
2022-10-21T17:20:33.161Z,28.16
2022-10-21T17:23:24.105Z,28.24
2022-10-21T17:26:08.258Z,28.47
2022-10-21T17:28:55.628Z,28.29
2022-10-21T17:31:41.013Z,28.48
2022-10-21T17:34:39.347Z,28.33
2022-10-21T17:37:26.710Z,28.58
2022-10-21T17:40:25.458Z,28.46
2022-10-21T17:43:08.933Z,28.54
2022-10-21T17:45:45.816Z,28.33
2022-10-21T17:48:26.177Z,28.16
2022-10-21T17:51:33.652Z,27.79
2022-10-21T17:54:27.949Z,28.08
2022-10-21T17:57:36.710Z,28.18
2022-10-21T18:00:31.072Z,28.30
2022-10-21T18:03:18.873Z,28.34
2022-10-21T18:06:19.245Z,28.00
2022-10-21T18:09:00.646Z,28.15
2022-10-21T18:11:52.430Z,27.96
2022-10-21T18:14:37.665Z,27.70
2022-10-21T18:17:22.838Z,27.86
2022-10-21T18:20:01.872Z,27.19
2022-10-21T18:22:44.416Z,27.20
2022-10-21T18:25:21.384Z,27.70
2022-10-21T18:27:57.971Z,27.48
2022-10-21T18:30:44.235Z,27.84
2022-10-21T18:33:21.206Z,27.92
2022-10-21T18:35:56.189Z,27.99
2022-10-21T18:38:44.613Z,27.68
2022-10-21T18:41:29.523Z,27.88
2022-10-21T18:44:09.518Z,27.66
2022-10-21T18:46:58.677Z,27.72
2022-10-21T18:49:46.595Z,27.55
2022-10-21T18:52:42.279Z,27.86
2022-10-21T18:55:11.065Z,27.94
2022-10-21T18:57:51.724Z,28.03
2022-10-21T19:00:22.337Z,28.07
2022-10-21T19:02:56.774Z,28.06
2022-10-21T19:05:30.273Z,27.68
2022-10-21T19:08:01.432Z,27.42
2022-10-21T19:10:32.010Z,27.55
2022-10-21T19:13:01.036Z,27.66
2022-10-21T19:15:38.572Z,27.32
2022-10-21T19:18:15.410Z,26.84
2022-10-21T19:20:46.805Z,27.16
2022-10-21T19:23:16.143Z,26.99
2022-10-21T19:25:46.327Z,26.96
2022-10-21T19:28:14.042Z,27.05
2022-10-21T19:30:43.702Z,26.85
2022-10-21T19:33:11.582Z,27.20
2022-10-21T19:35:42.014Z,27.33
2022-10-21T19:38:26.166Z,26.78
2022-10-21T19:41:01.031Z,26.76
2022-10-21T19:43:29.295Z,26.90
2022-10-21T19:46:01.412Z,26.58
2022-10-21T19:48:32.408Z,26.68
2022-10-21T19:51:00.476Z,26.99
2022-10-21T19:53:29.313Z,26.99
2022-10-21T19:55:57.385Z,26.85
2022-10-21T19:58:25.047Z,26.99
2022-10-21T20:01:02.001Z,26.50
2022-10-21T20:03:29.902Z,26.81
2022-10-21T20:05:58.076Z,26.88
2022-10-21T20:11:06.656Z,27.08
2022-10-21T20:13:34.986Z,26.89
2022-10-21T20:16:03.415Z,26.95
2022-10-21T20:18:31.745Z,26.98
2022-10-21T20:21:00.738Z,27.19
2022-10-21T20:23:28.845Z,27.08
2022-10-21T20:25:58.866Z,27.27
2022-10-21T20:28:28.478Z,27.26
2022-10-21T20:31:01.373Z,27.27
2022-10-21T20:33:31.682Z,27.07
2022-10-21T20:36:04.469Z,27.20
2022-10-21T20:38:32.596Z,27.30
2022-10-21T20:41:10.029Z,26.87
2022-10-21T20:43:40.461Z,27.28
2022-10-21T20:46:10.911Z,27.31
2022-10-21T20:48:46.692Z,27.33
2022-10-21T20:51:18.397Z,27.36
2022-10-21T20:53:52.513Z,27.39
2022-10-21T20:56:23.420Z,27.40
2022-10-21T20:58:56.280Z,27.41
2022-10-21T21:01:32.162Z,27.45
2022-10-21T21:04:10.780Z,27.42
2022-10-21T21:06:41.636Z,27.43
2022-10-21T21:12:04.868Z,27.39
2022-10-21T21:14:33.600Z,27.45
2022-10-21T21:17:03.373Z,27.46
2022-10-21T21:19:45.156Z,27.47
2022-10-21T21:22:13.525Z,27.52
2022-10-21T21:24:45.481Z,27.49
2022-10-21T21:27:16.770Z,27.47
2022-10-21T21:29:47.225Z,27.34
2022-10-21T21:32:14.853Z,27.29
2022-10-21T21:34:42.462Z,27.34
2022-10-21T21:37:10.606Z,27.42
2022-10-21T21:39:38.094Z,27.46
2022-10-21T21:42:08.390Z,27.41
2022-10-21T21:44:37.434Z,27.47
2022-10-21T21:47:04.796Z,27.52
2022-10-21T21:49:32.373Z,27.50
2022-10-21T21:52:00.109Z,27.45
2022-10-21T21:54:30.977Z,27.42
2022-10-21T21:57:23.195Z,27.42
2022-10-21T21:59:48.612Z,27.40
2022-10-21T22:02:16.137Z,27.36
2022-10-21T22:04:43.860Z,27.32
2022-10-21T22:07:11.257Z,27.22
2022-10-21T22:09:38.705Z,27.33
2022-10-21T22:12:06.717Z,27.36
2022-10-21T22:14:34.650Z,27.33
2022-10-21T22:17:02.212Z,27.31
2022-10-21T22:19:29.883Z,27.26
2022-10-21T22:21:59.034Z,27.31
2022-10-21T22:24:26.711Z,27.31
2022-10-21T22:26:54.517Z,27.28
2022-10-21T22:29:22.498Z,27.32
2022-10-21T22:31:50.919Z,27.32
2022-10-21T22:34:18.686Z,27.33
2022-10-21T22:36:46.487Z,27.31
2022-10-21T22:39:14.153Z,27.28
2022-10-21T22:41:41.850Z,27.29
2022-10-21T22:44:09.522Z,27.30
2022-10-21T22:46:37.185Z,27.31
2022-10-21T22:49:06.447Z,27.27
2022-10-21T22:51:34.944Z,27.25
2022-10-21T22:54:03.097Z,27.24
2022-10-21T22:56:31.311Z,27.21
2022-10-21T22:58:59.495Z,27.23
2022-10-21T23:01:31.571Z,27.19
2022-10-21T23:04:03.111Z,27.19
2022-10-21T23:06:35.200Z,27.15
2022-10-21T23:09:04.886Z,27.08
2022-10-21T23:11:33.620Z,27.11
2022-10-21T23:14:03.668Z,27.11
2022-10-21T23:16:40.049Z,27.05
2022-10-21T23:19:08.598Z,27.03
2022-10-21T23:21:37.614Z,27.02
2022-10-21T23:24:06.724Z,26.97
2022-10-21T23:26:36.230Z,26.98
2022-10-21T23:29:06.403Z,26.95
2022-10-21T23:31:34.533Z,26.93
2022-10-21T23:34:03.256Z,26.97
2022-10-21T23:36:31.190Z,26.90
2022-10-21T23:38:58.909Z,26.89
2022-10-21T23:41:29.420Z,26.86
2022-10-21T23:43:57.424Z,26.78
2022-10-21T23:46:25.007Z,26.74
2022-10-21T23:48:54.818Z,26.70
2022-10-21T23:51:22.878Z,26.72
2022-10-21T23:53:50.620Z,26.72
2022-10-21T23:56:18.211Z,26.69
2022-10-21T23:58:45.871Z,26.60
